createdAt,value
2022-08-25T00:01:43.427Z,2.97
2022-08-25T00:04:13.211Z,2.97
2022-08-25T00:06:43.635Z,2.90
2022-08-25T00:09:13.109Z,2.50
2022-08-25T00:11:41.748Z,2.80
2022-08-25T00:14:16.850Z,2.90
2022-08-25T00:16:44.297Z,2.65
2022-08-25T00:19:16.260Z,2.72
2022-08-25T00:21:45.502Z,2.60
2022-08-25T00:24:15.236Z,2.67
2022-08-25T00:26:47.088Z,2.58
2022-08-25T00:29:15.905Z,2.10
2022-08-25T00:31:44.683Z,2.63
2022-08-25T00:34:17.129Z,2.27
2022-08-25T00:36:45.275Z,2.50
2022-08-25T00:39:13.150Z,2.30
2022-08-25T00:41:43.346Z,1.92
2022-08-25T00:44:14.384Z,2.25
2022-08-25T00:46:45.145Z,1.80
2022-08-25T00:49:25.338Z,2.00
2022-08-25T00:52:06.107Z,2.13
2022-08-25T00:54:50.717Z,1.98
2022-08-25T00:57:34.067Z,1.88
2022-08-25T01:00:06.211Z,2.00
2022-08-25T01:02:33.622Z,1.60
2022-08-25T01:05:01.032Z,2.10
2022-08-25T01:07:28.422Z,2.33
2022-08-25T01:09:56.022Z,2.00
2022-08-25T01:12:23.499Z,1.70
2022-08-25T01:14:52.183Z,1.70
2022-08-25T01:17:21.423Z,2.65
2022-08-25T01:19:49.116Z,2.00
2022-08-25T01:22:16.961Z,2.28
2022-08-25T01:25:14.450Z,2.07
2022-08-25T01:27:41.869Z,1.95
2022-08-25T01:30:10.047Z,2.17
2022-08-25T01:32:37.497Z,2.40
2022-08-25T01:35:05.225Z,2.20
2022-08-25T01:37:35.191Z,2.20
2022-08-25T01:40:02.560Z,2.45
2022-08-25T01:42:57.947Z,2.20
2022-08-25T01:45:25.683Z,1.90
2022-08-25T01:47:57.086Z,1.77
2022-08-25T01:50:25.290Z,1.80
2022-08-25T01:53:08.963Z,2.20
2022-08-25T01:55:51.964Z,1.90
2022-08-25T01:58:21.880Z,1.75
2022-08-25T02:00:52.069Z,2.13
2022-08-25T02:03:20.179Z,1.83
2022-08-25T02:05:48.775Z,1.85
2022-08-25T02:08:16.683Z,1.45
2022-08-25T02:10:44.503Z,1.50
2022-08-25T02:13:13.225Z,1.90
2022-08-25T02:15:44.803Z,1.53
2022-08-25T02:18:13.088Z,2.15
2022-08-25T02:20:41.208Z,2.40
2022-08-25T02:23:08.822Z,2.28
2022-08-25T02:25:38.519Z,2.17
2022-08-25T02:28:07.098Z,2.13
2022-08-25T02:30:36.406Z,2.10
2022-08-25T02:33:04.625Z,2.58
2022-08-25T02:35:32.768Z,2.40
2022-08-25T02:38:00.599Z,2.20
2022-08-25T02:40:28.127Z,2.00
2022-08-25T02:42:55.779Z,2.85
2022-08-25T02:45:23.485Z,2.40
2022-08-25T02:47:50.957Z,2.38
2022-08-25T02:50:18.501Z,2.00
2022-08-25T02:52:46.388Z,2.30
2022-08-25T02:55:14.512Z,2.50
2022-08-25T02:57:42.720Z,2.83
2022-08-25T03:00:12.878Z,2.88
2022-08-25T03:02:41.701Z,3.70
2022-08-25T03:05:10.467Z,3.03
2022-08-25T03:07:38.787Z,3.20
2022-08-25T03:10:13.207Z,3.55
2022-08-25T03:12:43.920Z,3.00
2022-08-25T03:15:13.445Z,3.10
2022-08-25T03:17:41.155Z,3.63
2022-08-25T03:20:13.590Z,3.83
2022-08-25T03:22:41.547Z,3.28
2022-08-25T03:25:28.327Z,3.30
2022-08-25T03:27:56.092Z,3.35
2022-08-25T03:30:24.141Z,3.70
2022-08-25T03:32:51.440Z,3.30
2022-08-25T03:35:19.005Z,3.50
2022-08-25T03:37:46.390Z,3.35
2022-08-25T03:40:16.545Z,3.50
2022-08-25T03:42:45.800Z,4.00
2022-08-25T03:45:14.813Z,3.25
2022-08-25T03:47:42.612Z,2.72
2022-08-25T03:50:11.589Z,3.17
2022-08-25T03:52:42.622Z,3.10
2022-08-25T03:55:13.641Z,2.33
2022-08-25T03:57:41.152Z,3.35
2022-08-25T04:00:10.752Z,3.10
2022-08-25T04:02:41.933Z,3.45
2022-08-25T04:05:10.296Z,4.38
2022-08-25T04:07:38.512Z,3.67
2022-08-25T04:10:11.385Z,3.90
2022-08-25T04:12:39.605Z,3.03
2022-08-25T04:15:09.059Z,3.05
2022-08-25T04:17:40.722Z,2.58
2022-08-25T04:20:11.197Z,2.90
2022-08-25T04:22:41.774Z,3.20
2022-08-25T04:25:13.470Z,3.35
2022-08-25T04:27:41.041Z,3.28
2022-08-25T04:30:09.007Z,3.75
2022-08-25T04:32:37.529Z,4.03
2022-08-25T04:35:05.920Z,4.13
2022-08-25T04:37:33.759Z,3.50
2022-08-25T04:40:01.235Z,4.00
2022-08-25T04:42:28.771Z,4.30
2022-08-25T04:44:56.200Z,4.17
2022-08-25T04:47:24.064Z,4.50
2022-08-25T04:49:51.400Z,4.72
2022-08-25T04:52:18.788Z,5.63
2022-08-25T04:54:46.623Z,6.65
2022-08-25T04:57:14.172Z,6.67
2022-08-25T04:59:41.723Z,6.65
2022-08-25T05:02:10.188Z,6.50
2022-08-25T05:04:38.118Z,6.57
2022-08-25T05:07:06.547Z,5.88
2022-08-25T05:09:34.368Z,6.30
2022-08-25T05:12:02.772Z,6.18
2022-08-25T05:14:31.685Z,6.45
2022-08-25T05:16:59.450Z,6.22
2022-08-25T05:19:27.077Z,6.25
2022-08-25T05:21:54.513Z,5.83
2022-08-25T05:24:22.468Z,6.13
2022-08-25T05:26:50.324Z,6.28
2022-08-25T05:29:18.293Z,5.53
2022-08-25T05:31:50.087Z,5.68
2022-08-25T05:34:19.784Z,6.07
2022-08-25T05:36:48.638Z,6.10
2022-08-25T05:39:16.465Z,5.90
2022-08-25T05:41:44.456Z,6.15
2022-08-25T05:44:14.377Z,6.15
2022-08-25T05:46:43.597Z,5.97
2022-08-25T05:49:10.996Z,6.65
2022-08-25T05:51:38.424Z,5.82
2022-08-25T05:54:06.322Z,6.57
2022-08-25T05:56:33.876Z,6.78
2022-08-25T05:59:04.038Z,7.07
2022-08-25T06:01:52.221Z,6.90
2022-08-25T06:04:20.638Z,6.65
2022-08-25T06:06:49.272Z,6.65
2022-08-25T06:09:16.662Z,6.72
2022-08-25T06:11:44.058Z,5.90
2022-08-25T06:14:11.800Z,5.88
2022-08-25T06:16:40.466Z,5.65
2022-08-25T06:19:11.936Z,5.43
2022-08-25T06:21:42.104Z,6.03
2022-08-25T06:24:15.254Z,5.70
2022-08-25T06:26:44.439Z,5.78
2022-08-25T06:29:14.363Z,5.50
2022-08-25T06:31:42.810Z,5.25
2022-08-25T06:34:11.135Z,5.28
2022-08-25T06:36:38.671Z,5.07
2022-08-25T06:39:06.313Z,5.38
2022-08-25T06:41:37.071Z,5.78
2022-08-25T06:44:05.709Z,4.97
2022-08-25T06:46:36.341Z,4.85
2022-08-25T06:49:08.354Z,4.60
2022-08-25T06:51:36.426Z,4.93
2022-08-25T06:54:06.781Z,4.55
2022-08-25T06:56:34.569Z,5.32
2022-08-25T06:59:05.808Z,5.25
2022-08-25T07:01:34.381Z,5.47
2022-08-25T07:04:07.585Z,4.75
2022-08-25T07:06:38.024Z,4.88
2022-08-25T07:09:06.794Z,5.05
2022-08-25T07:11:34.728Z,4.57
2022-08-25T07:14:07.132Z,4.67
2022-08-25T07:16:36.178Z,5.20
2022-08-25T07:19:05.307Z,5.15
2022-08-25T07:21:36.021Z,5.10
2022-08-25T07:24:09.651Z,4.95
2022-08-25T07:26:39.294Z,4.80
2022-08-25T07:29:13.546Z,5.95
2022-08-25T07:31:41.364Z,5.43
2022-08-25T07:34:28.378Z,5.82
2022-08-25T07:36:57.300Z,5.55
2022-08-25T07:39:26.470Z,5.50
2022-08-25T07:41:56.793Z,5.45
2022-08-25T07:44:28.219Z,5.25
2022-08-25T07:46:56.073Z,5.53
2022-08-25T07:49:25.001Z,6.07
2022-08-25T07:52:05.411Z,5.33
2022-08-25T07:54:38.450Z,5.00
2022-08-25T07:57:08.234Z,5.90
2022-08-25T07:59:40.233Z,4.45
2022-08-25T08:02:18.286Z,4.90
2022-08-25T08:04:51.444Z,4.50
2022-08-25T08:07:20.881Z,4.90
2022-08-25T08:10:05.267Z,4.38
2022-08-25T08:12:38.731Z,4.63
2022-08-25T08:15:10.556Z,5.15
2022-08-25T08:17:39.776Z,5.20
2022-08-25T08:20:09.330Z,4.57
2022-08-25T08:22:39.528Z,5.05
2022-08-25T08:25:10.409Z,4.95
2022-08-25T08:27:39.639Z,5.65
2022-08-25T08:30:08.104Z,4.57
2022-08-25T08:33:05.972Z,4.72
2022-08-25T08:35:23.826Z,4.88
2022-08-25T08:37:53.903Z,4.50
2022-08-25T08:40:25.304Z,4.35
2022-08-25T08:43:13.346Z,4.67
2022-08-25T08:45:53.920Z,5.00
2022-08-25T08:48:44.746Z,4.47
2022-08-25T08:51:23.179Z,4.85
2022-08-25T08:53:58.648Z,4.40
2022-08-25T08:56:51.147Z,4.20
2022-08-25T08:59:30.151Z,4.63
2022-08-25T09:02:04.330Z,3.30
2022-08-25T09:04:59.736Z,3.78
2022-08-25T09:07:42.346Z,4.10
2022-08-25T09:10:10.658Z,4.50
2022-08-25T09:12:47.979Z,6.20
2022-08-25T09:16:20.667Z,6.43
2022-08-25T09:19:08.749Z,6.18
2022-08-25T09:22:35.624Z,5.60
2022-08-25T09:25:08.543Z,5.20
2022-08-25T09:27:57.567Z,5.40
2022-08-25T09:30:30.431Z,4.57
2022-08-25T09:33:05.153Z,4.22
2022-08-25T09:35:35.505Z,3.90
2022-08-25T09:38:10.883Z,3.80
2022-08-25T09:40:47.599Z,4.05
2022-08-25T09:43:32.483Z,4.60
2022-08-25T09:46:03.558Z,4.65
2022-08-25T09:48:55.836Z,4.15
2022-08-25T09:51:42.607Z,4.30
2022-08-25T09:54:13.730Z,3.70
2022-08-25T09:56:59.643Z,3.42
2022-08-25T09:59:38.216Z,4.13
2022-08-25T10:02:26.271Z,4.55
2022-08-25T10:04:55.331Z,4.20
2022-08-25T10:07:51.999Z,4.78
2022-08-25T10:10:53.452Z,4.30
2022-08-25T10:13:23.924Z,4.63
2022-08-25T10:16:20.419Z,3.72
2022-08-25T10:19:11.127Z,3.63
2022-08-25T10:21:43.076Z,3.22
2022-08-25T10:24:12.798Z,3.47
2022-08-25T10:27:06.524Z,3.50
2022-08-25T10:30:05.249Z,3.30
2022-08-25T10:33:09.841Z,3.30
2022-08-25T10:35:58.646Z,4.30
2022-08-25T10:38:51.859Z,3.83
2022-08-25T10:41:46.935Z,3.85
2022-08-25T10:44:54.049Z,3.40
2022-08-25T10:47:49.551Z,4.03
2022-08-25T10:50:45.378Z,4.47
2022-08-25T10:53:44.377Z,4.03
2022-08-25T10:56:26.603Z,3.60
2022-08-25T10:59:09.330Z,3.22
2022-08-25T11:01:53.473Z,4.47
2022-08-25T11:04:27.277Z,3.72
2022-08-25T11:07:00.925Z,4.00
2022-08-25T11:09:36.627Z,3.50
2022-08-25T11:12:20.344Z,3.58
2022-08-25T11:14:57.687Z,4.07
2022-08-25T11:17:29.588Z,3.30
2022-08-25T11:20:04.140Z,3.63
2022-08-25T11:22:42.994Z,4.22
2022-08-25T11:25:35.832Z,3.40
2022-08-25T11:28:35.651Z,3.27
2022-08-25T11:31:05.130Z,4.22
2022-08-25T11:33:33.988Z,3.50
2022-08-25T11:36:06.831Z,3.17
2022-08-25T11:39:25.064Z,3.50
2022-08-25T11:42:19.679Z,3.50
2022-08-25T11:45:04.946Z,3.38
2022-08-25T11:48:09.455Z,4.15
2022-08-25T11:50:55.570Z,4.00
2022-08-25T11:53:37.632Z,4.35
2022-08-25T11:56:09.527Z,4.40
2022-08-25T11:58:46.760Z,4.63
2022-08-25T12:01:43.385Z,5.50
2022-08-25T12:04:15.356Z,4.10
2022-08-25T12:07:07.533Z,4.22
2022-08-25T12:09:54.835Z,3.60
2022-08-25T12:12:39.275Z,4.22
2022-08-25T12:15:26.692Z,4.05
2022-08-25T12:18:45.808Z,4.00
2022-08-25T12:21:17.060Z,3.85
2022-08-25T12:24:08.700Z,4.10
2022-08-25T12:26:43.007Z,4.35
2022-08-25T12:29:28.728Z,4.30
2022-08-25T12:32:07.248Z,4.10
2022-08-25T12:35:10.436Z,4.63
2022-08-25T12:38:02.643Z,3.83
2022-08-25T12:41:04.949Z,4.57
2022-08-25T12:43:37.487Z,4.18
2022-08-25T12:46:23.651Z,5.05
2022-08-25T12:49:00.647Z,5.75
2022-08-25T12:51:34.060Z,4.03
2022-08-25T12:54:22.616Z,4.20
2022-08-25T12:57:05.082Z,5.05
2022-08-25T12:59:35.877Z,4.50
2022-08-25T13:02:19.684Z,4.00
2022-08-25T13:04:56.635Z,4.77
2022-08-25T13:07:35.800Z,3.75
2022-08-25T13:10:28.724Z,4.05
2022-08-25T13:13:11.217Z,4.05
2022-08-25T13:15:41.084Z,5.20
2022-08-25T13:18:30.163Z,4.60
2022-08-25T13:21:22.221Z,4.22
2022-08-25T13:23:53.964Z,3.95
2022-08-25T13:26:28.367Z,4.43
2022-08-25T13:29:05.173Z,4.60
2022-08-25T13:31:38.652Z,4.30
2022-08-25T13:34:19.530Z,4.05
2022-08-25T13:37:07.371Z,4.30
2022-08-25T13:39:55.372Z,4.28
2022-08-25T13:42:28.775Z,4.20
2022-08-25T13:44:57.197Z,4.27
2022-08-25T13:47:44.961Z,4.82
2022-08-25T13:50:28.926Z,4.75
2022-08-25T13:53:24.096Z,4.72
2022-08-25T13:56:03.558Z,4.75
2022-08-25T13:58:44.817Z,5.00
2022-08-25T14:01:47.708Z,3.35
2022-08-25T14:04:35.164Z,3.53
2022-08-25T14:07:26.591Z,4.93
2022-08-25T14:10:31.549Z,3.63
2022-08-25T14:13:35.014Z,4.80
2022-08-25T14:16:22.009Z,4.57
2022-08-25T14:18:58.898Z,3.97
2022-08-25T14:21:30.367Z,4.35
2022-08-25T14:23:59.964Z,3.80
2022-08-25T14:26:27.746Z,3.80
2022-08-25T14:28:56.348Z,3.58
2022-08-25T14:31:30.193Z,3.90
2022-08-25T14:34:00.534Z,4.13
2022-08-25T14:36:30.536Z,4.50
2022-08-25T14:38:58.198Z,4.50
2022-08-25T14:41:27.176Z,4.80
2022-08-25T14:43:54.587Z,4.28
2022-08-25T14:46:24.843Z,4.13
2022-08-25T14:48:56.910Z,3.78
2022-08-25T14:51:26.579Z,3.70
2022-08-25T14:53:56.888Z,4.03
2022-08-25T14:56:24.620Z,4.38
2022-08-25T14:58:55.347Z,3.70
2022-08-25T15:01:28.463Z,3.47
2022-08-25T15:04:10.227Z,3.40
2022-08-25T15:06:43.501Z,3.78
2022-08-25T15:09:13.169Z,2.95
2022-08-25T15:11:44.126Z,3.45
2022-08-25T15:14:16.046Z,3.53
2022-08-25T15:16:53.762Z,3.50
2022-08-25T15:19:24.386Z,3.38
2022-08-25T15:21:52.460Z,4.10
2022-08-25T15:24:21.422Z,3.50
2022-08-25T15:27:10.258Z,3.95
2022-08-25T15:29:38.312Z,3.67
2022-08-25T15:32:08.387Z,3.25
2022-08-25T15:34:36.836Z,3.72
2022-08-25T15:37:10.735Z,3.50
2022-08-25T15:39:39.205Z,4.00
2022-08-25T15:42:07.008Z,4.47
2022-08-25T15:44:34.570Z,3.50
2022-08-25T15:47:03.905Z,4.05
2022-08-25T15:49:32.387Z,3.95
2022-08-25T15:52:00.596Z,3.90
2022-08-25T15:54:28.916Z,3.67
2022-08-25T15:56:58.480Z,3.60
2022-08-25T15:59:28.912Z,4.07
2022-08-25T16:01:57.080Z,3.88
2022-08-25T16:04:28.276Z,4.03
2022-08-25T16:06:56.321Z,4.20
2022-08-25T16:09:26.313Z,4.05
2022-08-25T16:11:56.193Z,4.32
2022-08-25T16:14:25.998Z,4.50
2022-08-25T16:16:53.628Z,4.75
2022-08-25T16:19:27.857Z,4.70
2022-08-25T16:21:55.946Z,4.75
2022-08-25T16:24:24.793Z,5.10
2022-08-25T16:26:55.869Z,5.00
2022-08-25T16:29:24.634Z,4.70
2022-08-25T16:31:55.032Z,4.67
2022-08-25T16:34:24.428Z,5.45
2022-08-25T16:36:53.717Z,5.10
2022-08-25T16:39:23.837Z,5.90
2022-08-25T16:41:52.517Z,5.13
2022-08-25T16:44:22.567Z,5.20
2022-08-25T16:46:54.769Z,5.15
2022-08-25T16:49:24.466Z,6.07
2022-08-25T16:51:57.349Z,5.00
2022-08-25T16:54:45.693Z,5.40
2022-08-25T16:57:13.713Z,5.47
2022-08-25T16:59:43.817Z,5.47
2022-08-25T17:02:11.918Z,5.22
2022-08-25T17:04:41.070Z,5.15
2022-08-25T17:07:08.545Z,5.70
2022-08-25T17:09:37.134Z,5.30
2022-08-25T17:12:05.621Z,5.20
2022-08-25T17:14:33.127Z,5.90
2022-08-25T17:17:00.809Z,6.53
2022-08-25T17:19:28.520Z,6.18
2022-08-25T17:21:55.911Z,6.27
2022-08-25T17:24:29.503Z,5.60
2022-08-25T17:26:59.699Z,6.30
2022-08-25T17:29:28.937Z,5.90
2022-08-25T17:31:56.328Z,6.53
2022-08-25T17:34:24.680Z,6.10
2022-08-25T17:36:54.731Z,6.72
2022-08-25T17:39:23.280Z,6.00
2022-08-25T17:41:51.388Z,6.03
2022-08-25T17:44:19.992Z,6.05
2022-08-25T17:46:49.607Z,6.40
2022-08-25T17:49:20.416Z,6.53
2022-08-25T17:51:48.505Z,6.45
2022-08-25T17:54:17.492Z,7.05
2022-08-25T17:56:44.980Z,6.25
2022-08-25T17:59:13.742Z,6.63
2022-08-25T18:01:42.145Z,6.15
2022-08-25T18:04:17.660Z,5.05
2022-08-25T18:06:47.910Z,4.90
2022-08-25T18:09:17.364Z,4.65
2022-08-25T18:11:46.039Z,4.30
2022-08-25T18:14:16.799Z,4.00
2022-08-25T18:16:44.989Z,5.25
2022-08-25T18:19:14.288Z,4.25
2022-08-25T18:21:43.259Z,4.13
2022-08-25T18:24:11.679Z,4.30
2022-08-25T18:26:40.811Z,3.60
2022-08-25T18:29:12.495Z,4.30
2022-08-25T18:31:42.181Z,4.40
2022-08-25T18:34:11.739Z,4.35
2022-08-25T18:36:39.579Z,4.00
2022-08-25T18:39:26.080Z,4.35
2022-08-25T18:41:54.033Z,4.35
2022-08-25T18:44:22.140Z,4.93
2022-08-25T18:46:49.956Z,4.25
2022-08-25T18:49:17.663Z,5.20
2022-08-25T18:51:46.772Z,4.30
2022-08-25T18:54:23.398Z,4.25
2022-08-25T18:56:53.966Z,4.38
2022-08-25T18:59:23.671Z,4.22
2022-08-25T19:01:54.079Z,4.40
2022-08-25T19:04:28.410Z,4.30
2022-08-25T19:07:00.882Z,4.88
2022-08-25T19:09:28.772Z,4.68
2022-08-25T19:11:58.027Z,3.58
2022-08-25T19:14:26.395Z,4.13
2022-08-25T19:16:54.682Z,3.42
2022-08-25T19:19:23.345Z,3.90
2022-08-25T19:21:50.873Z,4.43
2022-08-25T19:24:19.321Z,3.60
2022-08-25T19:26:46.791Z,4.13
2022-08-25T19:29:17.665Z,3.85
2022-08-25T19:31:47.624Z,4.05
2022-08-25T19:34:20.045Z,4.68
2022-08-25T19:36:51.375Z,4.43
2022-08-25T19:39:19.052Z,4.80
2022-08-25T19:41:47.321Z,5.55
2022-08-25T19:44:16.082Z,3.70
2022-08-25T19:46:45.683Z,3.30
2022-08-25T19:49:17.791Z,3.08
2022-08-25T19:51:50.595Z,1.80
2022-08-25T19:54:27.089Z,1.88
2022-08-25T19:56:56.013Z,1.23
2022-08-25T19:59:36.668Z,1.30
2022-08-25T20:02:17.202Z,1.38
2022-08-25T20:04:49.559Z,1.27
2022-08-25T20:07:23.586Z,1.60
2022-08-25T20:09:53.435Z,1.50
2022-08-25T20:12:23.094Z,1.55
2022-08-25T20:14:52.351Z,1.50
2022-08-25T20:17:23.745Z,1.33
2022-08-25T20:19:58.066Z,2.42
2022-08-25T20:22:27.565Z,2.47
2022-08-25T20:24:58.211Z,2.88
2022-08-25T20:27:37.046Z,3.30
2022-08-25T20:30:08.332Z,3.20
2022-08-25T20:32:37.145Z,2.30
2022-08-25T20:35:08.825Z,2.58
2022-08-25T20:37:37.036Z,2.70
2022-08-25T20:40:05.848Z,2.78
2022-08-25T20:42:33.233Z,2.53
2022-08-25T20:45:00.974Z,2.20
2022-08-25T20:47:28.521Z,2.15
2022-08-25T20:49:55.948Z,2.15
2022-08-25T20:52:23.321Z,2.30
2022-08-25T20:54:51.689Z,1.73
2022-08-25T20:57:24.327Z,2.10
2022-08-25T20:59:53.439Z,3.08
2022-08-25T21:02:21.465Z,1.95
2022-08-25T21:04:50.233Z,1.90
2022-08-25T21:07:18.827Z,1.93
2022-08-25T21:09:47.241Z,2.50
2022-08-25T21:12:15.046Z,1.90
2022-08-25T21:14:42.519Z,2.00
2022-08-25T21:17:14.585Z,1.50
2022-08-25T21:19:42.806Z,1.90
2022-08-25T21:22:11.305Z,1.92
2022-08-25T21:24:38.964Z,2.08
2022-08-25T21:27:07.067Z,1.80
2022-08-25T21:29:34.643Z,1.85
2022-08-25T21:32:03.032Z,1.77
2022-08-25T21:34:31.629Z,1.60
2022-08-25T21:37:00.241Z,2.95
2022-08-25T21:39:29.943Z,1.70
2022-08-25T21:42:00.427Z,1.67
2022-08-25T21:44:29.456Z,1.93
2022-08-25T21:46:57.336Z,2.10
2022-08-25T21:49:25.721Z,1.67
2022-08-25T21:52:02.384Z,1.95
2022-08-25T21:54:32.258Z,1.92
2022-08-25T21:57:06.191Z,1.73
2022-08-25T21:59:40.740Z,1.40
2022-08-25T22:02:12.673Z,1.70
2022-08-25T22:04:40.509Z,1.95
2022-08-25T22:07:09.500Z,1.80
2022-08-25T22:09:37.743Z,1.60
2022-08-25T22:12:05.889Z,1.50
2022-08-25T22:14:33.548Z,1.45
2022-08-25T22:17:02.187Z,1.60
2022-08-25T22:19:29.551Z,1.90
2022-08-25T22:21:57.262Z,1.70
2022-08-25T22:24:28.076Z,1.83
2022-08-25T22:26:56.049Z,1.73
2022-08-25T22:29:25.487Z,1.80
2022-08-25T22:31:59.611Z,2.05
2022-08-25T22:34:34.033Z,2.03
2022-08-25T22:37:03.603Z,2.00
2022-08-25T22:39:32.223Z,2.55
2022-08-25T22:42:03.151Z,2.33
2022-08-25T22:44:31.438Z,2.40
2022-08-25T22:46:58.963Z,2.40
2022-08-25T22:49:29.207Z,2.40
2022-08-25T22:51:57.537Z,2.33
2022-08-25T22:54:25.381Z,2.33
2022-08-25T22:56:53.583Z,2.50
2022-08-25T22:59:22.185Z,2.73
2022-08-25T23:01:52.677Z,2.78
2022-08-25T23:04:22.906Z,2.63
2022-08-25T23:06:52.644Z,2.28
2022-08-25T23:09:19.931Z,2.15
2022-08-25T23:11:51.132Z,2.10
2022-08-25T23:14:19.430Z,1.90
2022-08-25T23:16:47.194Z,1.77
2022-08-25T23:19:14.893Z,1.70
2022-08-25T23:22:02.550Z,2.38
2022-08-25T23:24:31.386Z,1.83
2022-08-25T23:26:59.964Z,1.75
2022-08-25T23:29:28.702Z,1.65
2022-08-25T23:31:57.548Z,1.70
2022-08-25T23:34:26.122Z,1.88
2022-08-25T23:36:53.929Z,2.10
2022-08-25T23:39:21.953Z,2.05
2022-08-25T23:41:50.450Z,2.22
2022-08-25T23:44:19.226Z,2.25
2022-08-25T23:46:48.149Z,2.60
2022-08-25T23:49:18.900Z,2.23
2022-08-25T23:51:48.812Z,2.75
2022-08-25T23:54:17.612Z,2.75
2022-08-25T23:56:51.747Z,2.80
2022-08-25T23:59:25.869Z,2.88
